createdAt,value
2018-06-22T00:00:57.956Z,1.90
2018-06-22T00:03:25.136Z,2.03
2018-06-22T00:05:52.451Z,2.27
2018-06-22T00:08:19.697Z,2.20
2018-06-22T00:10:46.920Z,2.00
2018-06-22T00:13:14.118Z,1.80
2018-06-22T00:15:41.321Z,1.63
2018-06-22T00:18:08.585Z,1.90
2018-06-22T00:20:35.798Z,2.00
2018-06-22T00:23:02.973Z,2.00
2018-06-22T00:25:30.252Z,1.80
2018-06-22T00:27:57.458Z,1.70
2018-06-22T00:30:24.622Z,1.87
2018-06-22T00:32:51.962Z,2.03
2018-06-22T00:35:19.113Z,2.40
2018-06-22T00:37:46.273Z,2.77
2018-06-22T00:40:13.434Z,3.10
2018-06-22T00:42:40.572Z,3.70
2018-06-22T00:45:07.721Z,2.83
2018-06-22T00:47:34.909Z,3.17
2018-06-22T00:50:02.143Z,3.50
2018-06-22T00:52:29.301Z,3.17
2018-06-22T00:54:56.878Z,3.20
2018-06-22T00:57:24.070Z,3.13
2018-06-22T00:59:51.245Z,3.23
2018-06-22T01:02:18.440Z,3.30
2018-06-22T01:04:45.638Z,3.20
2018-06-22T01:07:12.788Z,2.60
2018-06-22T01:09:39.995Z,2.57
2018-06-22T01:12:07.176Z,2.40
2018-06-22T01:14:34.356Z,3.10
2018-06-22T01:17:01.644Z,2.80
2018-06-22T01:19:28.813Z,2.40
2018-06-22T01:21:56.003Z,2.40
2018-06-22T01:24:23.153Z,2.23
2018-06-22T01:26:50.358Z,2.63
2018-06-22T01:29:23.172Z,3.27
2018-06-22T01:31:50.381Z,2.50
2018-06-22T01:34:17.815Z,2.13
2018-06-22T01:36:44.953Z,2.60
2018-06-22T01:39:12.161Z,2.80
2018-06-22T01:41:39.364Z,3.30
2018-06-22T01:44:06.641Z,2.60
2018-06-22T01:46:34.445Z,2.53
2018-06-22T01:49:01.683Z,3.00
2018-06-22T01:51:28.896Z,2.83
2018-06-22T01:53:56.089Z,3.30
2018-06-22T01:56:23.311Z,2.77
2018-06-22T01:58:50.501Z,2.30
2018-06-22T02:01:17.723Z,2.40
2018-06-22T02:03:44.981Z,3.00
2018-06-22T02:06:12.154Z,2.53
2018-06-22T02:08:39.345Z,3.20
2018-06-22T02:11:06.561Z,2.63
2018-06-22T02:13:33.956Z,2.63
2018-06-22T02:16:01.442Z,3.17
2018-06-22T02:18:28.616Z,2.50
2018-06-22T02:20:55.797Z,3.33
2018-06-22T02:23:23.011Z,3.07
2018-06-22T02:25:50.209Z,3.10
2018-06-22T02:28:17.428Z,3.40
2018-06-22T02:30:44.629Z,2.90
2018-06-22T02:33:12.117Z,3.70
2018-06-22T02:35:39.298Z,3.23
2018-06-22T02:38:06.529Z,2.80
2018-06-22T02:40:33.757Z,2.97
2018-06-22T02:43:00.925Z,3.03
2018-06-22T02:45:28.128Z,3.23
2018-06-22T02:47:55.322Z,4.00
2018-06-22T02:50:22.525Z,3.37
2018-06-22T02:52:49.827Z,3.10
2018-06-22T02:55:17.029Z,3.73
2018-06-22T02:57:44.233Z,3.73
2018-06-22T03:00:11.453Z,3.17
2018-06-22T03:02:38.655Z,3.40
2018-06-22T03:05:05.843Z,3.40
2018-06-22T03:07:33.136Z,2.40
2018-06-22T03:10:02.739Z,2.03
2018-06-22T03:12:29.925Z,1.60
2018-06-22T03:14:57.113Z,2.10
2018-06-22T03:17:24.373Z,2.00
2018-06-22T03:19:51.577Z,1.97
2018-06-22T03:22:18.770Z,1.80
2018-06-22T03:24:46.259Z,1.77
2018-06-22T03:27:13.460Z,2.00
2018-06-22T03:29:40.673Z,2.00
2018-06-22T03:32:07.911Z,1.77
2018-06-22T03:34:35.068Z,1.47
2018-06-22T03:37:02.254Z,1.77
2018-06-22T03:39:29.479Z,1.93
2018-06-22T03:41:56.653Z,2.03
2018-06-22T03:44:23.893Z,2.30
2018-06-22T03:46:51.133Z,2.20
2018-06-22T03:49:18.335Z,2.60
2018-06-22T03:51:45.813Z,2.50
2018-06-22T03:54:14.021Z,2.97
2018-06-22T03:56:41.214Z,2.30
2018-06-22T03:59:08.442Z,2.87
2018-06-22T04:01:35.621Z,3.20
2018-06-22T04:04:02.843Z,4.07
2018-06-22T04:06:30.023Z,2.77
2018-06-22T04:08:57.414Z,2.60
2018-06-22T04:11:24.580Z,2.63
2018-06-22T04:13:51.749Z,2.97
2018-06-22T04:16:18.959Z,3.33
2018-06-22T04:18:46.261Z,2.73
2018-06-22T04:21:13.486Z,2.93
2018-06-22T04:23:40.669Z,2.70
2018-06-22T04:26:07.969Z,3.00
2018-06-22T04:28:35.141Z,4.27
2018-06-22T04:31:02.735Z,2.97
2018-06-22T04:33:29.930Z,3.47
2018-06-22T04:35:57.122Z,3.33
2018-06-22T04:38:24.302Z,2.90
2018-06-22T04:40:51.502Z,2.87
2018-06-22T04:43:18.729Z,2.20
2018-06-22T04:45:45.943Z,2.60
2018-06-22T04:48:13.138Z,3.20
2018-06-22T04:50:40.341Z,3.30
2018-06-22T04:53:07.561Z,3.23
2018-06-22T04:55:34.766Z,2.90
2018-06-22T04:58:01.961Z,3.50
2018-06-22T05:00:29.132Z,3.03
2018-06-22T05:02:56.354Z,3.17
2018-06-22T05:05:23.640Z,3.80
2018-06-22T05:07:50.897Z,2.60
2018-06-22T05:10:18.097Z,2.70
2018-06-22T05:12:45.338Z,3.13
2018-06-22T05:15:12.568Z,2.80
2018-06-22T05:17:40.115Z,3.17
2018-06-22T05:20:07.479Z,2.97
2018-06-22T05:22:34.752Z,2.47
2018-06-22T05:25:01.933Z,2.57
2018-06-22T05:27:29.168Z,2.40
2018-06-22T05:29:56.386Z,3.63
2018-06-22T05:32:23.623Z,2.33
2018-06-22T05:34:50.917Z,2.40
2018-06-22T05:37:18.126Z,2.40
2018-06-22T05:39:45.356Z,2.23
2018-06-22T05:42:12.571Z,2.40
2018-06-22T05:44:39.797Z,2.20
2018-06-22T05:47:07.045Z,2.20
2018-06-22T05:49:34.315Z,1.77
2018-06-22T05:52:01.557Z,3.00
2018-06-22T05:54:28.754Z,2.30
2018-06-22T05:56:55.967Z,2.50
2018-06-22T05:59:23.257Z,2.02
2018-06-22T06:01:50.671Z,1.90
2018-06-22T06:04:17.904Z,1.70
2018-06-22T06:06:45.224Z,1.90
2018-06-22T06:09:12.449Z,1.97
2018-06-22T06:11:39.702Z,2.60
2018-06-22T06:14:07.076Z,2.10
2018-06-22T06:16:34.257Z,2.00
2018-06-22T06:19:01.486Z,2.43
2018-06-22T06:21:28.717Z,1.97
2018-06-22T06:23:55.920Z,1.80
2018-06-22T06:26:23.162Z,2.20
2018-06-22T06:28:50.397Z,2.27
2018-06-22T06:31:17.726Z,2.10
2018-06-22T06:33:44.953Z,2.25
2018-06-22T06:36:12.171Z,2.12
2018-06-22T06:38:39.409Z,2.00
2018-06-22T06:41:06.843Z,2.10
2018-06-22T06:43:34.080Z,2.20
2018-06-22T06:46:01.319Z,2.30
2018-06-22T06:48:28.606Z,2.50
2018-06-22T06:52:47.647Z,2.10
2018-06-22T06:55:14.856Z,2.30
2018-06-22T06:57:42.065Z,2.13
2018-06-22T07:00:09.840Z,2.30
2018-06-22T07:02:37.336Z,2.00
2018-06-22T07:05:04.996Z,2.50
2018-06-22T07:07:32.470Z,2.90
2018-06-22T07:09:59.662Z,2.55
2018-06-22T07:12:26.853Z,2.47
2018-06-22T07:14:54.084Z,2.35
2018-06-22T07:17:21.309Z,2.50
2018-06-22T07:19:49.105Z,2.80
2018-06-22T07:22:16.434Z,2.27
2018-06-22T07:24:43.675Z,2.50
2018-06-22T07:27:10.906Z,2.40
2018-06-22T07:29:38.128Z,2.70
2018-06-22T07:32:05.359Z,2.30
2018-06-22T07:34:32.667Z,2.50
2018-06-22T07:36:59.918Z,2.50
2018-06-22T07:39:27.109Z,2.70
2018-06-22T07:41:54.373Z,2.80
2018-06-22T07:44:21.623Z,2.70
2018-06-22T07:46:49.233Z,2.70
2018-06-22T07:49:16.510Z,3.07
2018-06-22T07:51:43.777Z,3.55
2018-06-22T07:54:11.013Z,2.42
2018-06-22T07:56:38.362Z,2.40
2018-06-22T07:59:05.570Z,2.70
2018-06-22T08:01:32.763Z,3.20
2018-06-22T08:04:00.268Z,2.53
2018-06-22T08:06:27.581Z,2.80
2018-06-22T08:08:54.775Z,2.87
2018-06-22T08:11:22.618Z,2.80
2018-06-22T08:13:49.939Z,3.10
2018-06-22T08:16:17.270Z,3.23
2018-06-22T08:18:44.547Z,2.90
2018-06-22T08:21:11.773Z,2.60
2018-06-22T08:23:39.062Z,2.90
2018-06-22T08:26:07.078Z,2.87
2018-06-22T08:28:34.289Z,2.60
2018-06-22T08:31:01.606Z,2.92
2018-06-22T08:33:28.849Z,3.25
2018-06-22T08:35:56.153Z,3.10
2018-06-22T08:38:23.397Z,2.57
2018-06-22T08:40:51.362Z,2.67
2018-06-22T08:43:18.590Z,2.50
2018-06-22T08:45:45.859Z,3.08
2018-06-22T08:48:13.215Z,3.17
2018-06-22T08:50:40.391Z,3.17
2018-06-22T08:53:07.581Z,2.90
2018-06-22T08:55:35.057Z,3.35
2018-06-22T08:58:02.334Z,2.92
2018-06-22T09:00:29.610Z,3.02
2018-06-22T09:02:56.937Z,2.83
2018-06-22T09:05:24.114Z,2.60
2018-06-22T09:07:51.390Z,2.37
2018-06-22T09:10:18.593Z,2.60
2018-06-22T09:12:45.816Z,2.75
2018-06-22T09:15:13.017Z,3.85
2018-06-22T09:17:40.212Z,3.60
2018-06-22T09:20:07.456Z,3.87
2018-06-22T09:22:34.666Z,3.90
2018-06-22T09:25:01.888Z,3.80
2018-06-22T09:27:29.105Z,4.00
2018-06-22T09:29:56.287Z,3.60
2018-06-22T09:32:23.681Z,3.70
2018-06-22T09:34:50.895Z,3.23
2018-06-22T09:37:18.094Z,3.77
2018-06-22T09:39:45.406Z,3.30
2018-06-22T09:42:12.636Z,3.30
2018-06-22T09:44:40.358Z,3.00
2018-06-22T09:47:08.289Z,3.35
2018-06-22T09:49:35.545Z,3.30
2018-06-22T09:52:02.809Z,3.12
2018-06-22T09:54:30.121Z,3.52
2018-06-22T09:56:57.345Z,2.63
2018-06-22T09:59:24.667Z,3.13
2018-06-22T10:01:52.805Z,2.67
2018-06-22T10:04:20.584Z,2.77
2018-06-22T10:06:48.747Z,3.30
2018-06-22T10:09:15.937Z,2.63
2018-06-22T10:11:43.109Z,2.80
2018-06-22T10:14:10.493Z,3.40
2018-06-22T10:16:37.730Z,3.37
2018-06-22T10:48:26.989Z,4.53
2018-06-22T10:50:54.283Z,3.30
2018-06-22T10:53:21.998Z,4.73
2018-06-22T10:55:49.367Z,4.15
2018-06-22T10:58:16.752Z,3.00
2018-06-22T11:00:44.009Z,3.30
2018-06-22T11:03:11.284Z,3.20
2018-06-22T11:05:38.675Z,3.40
2018-06-22T11:08:05.866Z,3.92
2018-06-22T11:10:33.093Z,4.40
2018-06-22T11:15:27.073Z,2.90
2018-06-22T11:25:14.656Z,2.47
2018-06-22T11:27:41.968Z,2.90
2018-06-22T11:35:02.789Z,2.90
2018-06-22T11:37:31.150Z,3.67
2018-06-22T11:39:58.723Z,3.35
2018-06-22T11:42:26.100Z,3.30
2018-06-22T11:44:53.389Z,3.45
2018-06-22T11:47:20.693Z,2.92
2018-06-22T11:49:47.938Z,2.77
2018-06-22T11:52:15.181Z,3.25
2018-06-22T11:54:42.634Z,3.20
2018-06-22T11:57:09.903Z,4.08
2018-06-22T11:59:37.113Z,3.10
2018-06-22T12:02:04.389Z,3.27
2018-06-22T12:04:31.656Z,3.12
2018-06-22T12:06:58.996Z,2.90
2018-06-22T12:09:26.247Z,3.30
2018-06-22T12:11:53.513Z,3.12
2018-06-22T12:14:20.765Z,3.05
2018-06-22T12:16:48.048Z,2.80
2018-06-22T12:19:15.417Z,3.20
2018-06-22T12:21:42.567Z,3.75
2018-06-22T12:24:09.826Z,3.40
2018-06-22T12:26:37.071Z,3.30
2018-06-22T12:29:04.372Z,3.52
2018-06-22T12:31:31.597Z,3.12
2018-06-22T12:33:58.849Z,3.50
2018-06-22T12:36:26.084Z,3.20
2018-06-22T12:38:53.371Z,3.02
2018-06-22T12:41:20.614Z,3.00
2018-06-22T12:43:47.849Z,3.50
2018-06-22T12:56:02.289Z,2.97
2018-06-22T13:15:36.646Z,3.07
2018-06-22T13:18:03.953Z,2.60
2018-06-22T13:20:31.184Z,2.87
2018-06-22T13:22:58.516Z,3.33
2018-06-22T13:47:27.046Z,3.70
2018-06-22T13:54:47.865Z,3.17
2018-06-22T13:57:15.192Z,3.87
2018-06-22T13:59:42.357Z,3.27
2018-06-22T14:02:09.642Z,3.90
2018-06-22T14:04:42.650Z,3.27
2018-06-22T14:19:24.033Z,3.30
2018-06-22T14:21:51.331Z,3.08
2018-06-22T14:24:18.611Z,2.90
2018-06-22T14:26:45.848Z,3.22
2018-06-22T14:29:13.082Z,3.40
2018-06-22T14:31:41.489Z,4.47
2018-06-22T14:34:08.742Z,4.70
2018-06-22T14:36:36.036Z,4.40
2018-06-22T14:39:05.549Z,3.02
2018-06-22T14:41:32.820Z,3.02
2018-06-22T14:44:00.309Z,3.08
2018-06-22T14:46:27.611Z,3.35
2018-06-22T14:48:54.904Z,3.43
2018-06-22T14:51:22.119Z,3.00
2018-06-22T14:53:56.007Z,3.02
2018-06-22T14:56:29.164Z,3.40
2018-06-22T14:59:02.193Z,3.50
2018-06-22T15:01:35.184Z,4.20
2018-06-22T15:04:08.471Z,3.70
2018-06-22T15:06:41.477Z,3.33
2018-06-22T15:09:09.696Z,3.25
2018-06-22T15:11:37.155Z,3.20
2018-06-22T15:14:04.545Z,4.10
2018-06-22T15:16:31.896Z,4.40
2018-06-22T15:18:59.172Z,3.70
2018-06-22T15:21:27.407Z,3.47
2018-06-22T15:23:54.753Z,4.15
2018-06-22T15:26:22.143Z,4.17
2018-06-22T15:28:49.514Z,4.12
2018-06-22T15:31:16.998Z,4.67
2018-06-22T15:33:50.029Z,4.27
2018-06-22T15:36:23.184Z,5.22
2018-06-22T15:38:56.116Z,4.10
2018-06-22T15:41:29.259Z,3.70
2018-06-22T15:44:02.178Z,3.80
2018-06-22T15:46:35.484Z,3.10
2018-06-22T15:49:08.558Z,2.50
2018-06-22T15:51:41.535Z,2.50
2018-06-22T15:54:14.555Z,2.30
2018-06-22T15:56:41.987Z,3.00
2018-06-22T15:59:09.236Z,3.42
2018-06-22T16:01:36.505Z,4.60
2018-06-22T16:04:10.500Z,3.87
2018-06-22T16:06:38.033Z,3.87
2018-06-22T16:09:07.033Z,3.70
2018-06-22T16:11:34.538Z,3.83
2018-06-22T16:29:17.533Z,4.17
2018-06-22T20:30:52.485Z,3.60
2018-06-22T20:33:21.153Z,4.00
2018-06-22T20:35:54.410Z,5.00
2018-06-22T20:38:27.416Z,4.62
2018-06-22T20:41:00.354Z,4.95
2018-06-22T20:43:33.345Z,4.28
2018-06-22T20:46:00.601Z,4.58
2018-06-22T20:48:33.691Z,4.20
2018-06-22T20:51:00.936Z,4.42
2018-06-22T20:53:28.213Z,5.25
2018-06-22T20:55:55.446Z,4.92
2018-06-22T20:58:22.969Z,5.05
2018-06-22T21:00:50.270Z,5.28
2018-06-22T21:03:17.501Z,5.33
2018-06-22T21:05:44.870Z,5.20
2018-06-22T21:08:12.234Z,3.90
2018-06-22T21:10:39.433Z,4.47
2018-06-22T21:13:07.179Z,3.87
2018-06-22T21:15:34.325Z,5.10
2018-06-22T21:18:01.643Z,5.63
2018-06-22T21:20:28.851Z,4.50
2018-06-22T21:22:56.149Z,5.80
2018-06-22T21:25:23.374Z,5.60
2018-06-22T21:27:56.217Z,4.33
2018-06-22T21:30:29.027Z,4.80
2018-06-22T21:33:02.033Z,4.40
2018-06-22T21:35:34.907Z,4.10
2018-06-22T21:38:07.810Z,4.47
2018-06-22T21:40:35.018Z,5.90
2018-06-22T21:43:02.195Z,4.67
2018-06-22T21:45:29.418Z,5.53
2018-06-22T21:47:56.631Z,4.07
2018-06-22T21:50:23.853Z,4.23
2018-06-22T21:52:51.097Z,5.20
2018-06-22T21:55:18.345Z,4.73
2018-06-22T21:57:45.566Z,5.47
2018-06-22T22:00:17.905Z,4.10
2018-06-22T22:02:45.136Z,5.80
2018-06-22T22:05:13.669Z,4.70
2018-06-22T22:07:41.580Z,4.53
2018-06-22T22:10:08.801Z,5.13
2018-06-22T22:12:36.090Z,4.40
2018-06-22T22:15:03.421Z,5.90
2018-06-22T22:17:30.803Z,4.80
2018-06-22T22:19:58.100Z,5.10
2018-06-22T22:22:25.338Z,4.77
2018-06-22T22:24:52.561Z,4.47
2018-06-22T22:27:19.764Z,5.17
2018-06-22T22:29:47.038Z,3.83
2018-06-22T22:32:14.421Z,4.70
2018-06-22T22:34:41.627Z,3.80
2018-06-22T22:37:08.834Z,4.13
2018-06-22T22:39:36.012Z,4.77
2018-06-22T22:42:03.751Z,4.27
2018-06-22T22:44:30.994Z,4.87
2018-06-22T22:46:58.214Z,5.20
2018-06-22T22:49:25.450Z,5.07
2018-06-22T22:51:52.876Z,4.73
2018-06-22T22:54:20.069Z,4.73
2018-06-22T22:56:47.302Z,5.33
2018-06-22T22:59:14.530Z,5.13
2018-06-22T23:01:41.811Z,4.63
2018-06-22T23:04:09.178Z,5.23
2018-06-22T23:06:36.428Z,4.00
2018-06-22T23:09:06.119Z,4.60
2018-06-22T23:11:33.301Z,4.83
2018-06-22T23:14:00.469Z,5.50
2018-06-22T23:16:27.702Z,4.63
2018-06-22T23:18:54.874Z,6.23
2018-06-22T23:21:22.152Z,5.70
2018-06-22T23:23:49.337Z,4.73
2018-06-22T23:26:16.605Z,5.13
2018-06-22T23:28:43.845Z,6.00
2018-06-22T23:31:11.032Z,5.00
2018-06-22T23:33:38.331Z,5.30
2018-06-22T23:36:05.632Z,4.33
2018-06-22T23:38:33.218Z,5.43
2018-06-22T23:41:00.473Z,5.83
2018-06-22T23:43:28.198Z,5.37
2018-06-22T23:45:55.414Z,5.93
2018-06-22T23:48:22.793Z,5.03
2018-06-22T23:50:50.328Z,4.70
2018-06-22T23:53:17.626Z,4.60
2018-06-22T23:55:44.857Z,6.60
2018-06-22T23:58:12.292Z,5.23
